• Join FlightAware (Why Join?)
  • Login
  • US Flag 
Rudolph Flight #1: Arrived! 
08:18AM EST


 

Airport Tracker/Info


-or-


 

Live Flight TrackerFlight Track Log ✈ AAR8735 ✈ 17-Jun-2013 ✈ RKSS / GMP - RKJY / RSU

Flight Track Log - Related Links

Times and Time Zones

All times are in EDT time to prevent confusion due to time zone crossing. See the AAR8735 flight status page for this flight to view local times or setup timezone preferences in your user account.

Time Position Orientation Groundspeed Altitude Reporting Facility
EDT Latitude Longitude Course Direction KTS MPH feet Rate Location/Type
02:25AM 37.4490 126.7270 157° South 316 364 10,300  Level FlightAware
02:26AM 37.3750 126.7640 158° South 316 364 10,300 180 Level FlightAware
02:26AM 37.3260 126.7890 158° South 328 377 10,600 900 Climbing FlightAware
02:27AM 37.2510 126.8070 169° South 370 426 11,600 720 Climbing FlightAware
02:28AM 37.1980 126.8100 177° South 370 426 11,600  Level FlightAware
02:29AM 37.1270 126.8130 178° South 370 426 11,600  Level FlightAware
02:31AM 36.9820 126.8653 164° South  Level Estimated
02:32AM 36.9049 126.8931 164° South  Level Estimated
02:33AM 36.8279 126.9207 164° South  Level Estimated
02:34AM 36.7509 126.9483 164° South  Level Estimated
02:35AM 36.6739 126.9759 164° South  Level Estimated
02:36AM 36.5968 127.0033 164° South  Level Estimated
02:37AM 36.5198 127.0308 164° South  Level Estimated
02:38AM 36.4427 127.0582 164° South  Level Estimated
02:39AM 36.3657 127.0855 164° South  Level Estimated
02:40AM 36.2886 127.1128 164° South  Level Estimated
02:41AM 36.2115 127.1400 164° South  Level Estimated
02:42AM 36.1344 127.1671 164° South  Level Estimated
02:43AM 36.0574 127.1943 164° South  Level Estimated
02:44AM 35.9803 127.2213 164° South  Level Estimated
02:45AM 35.9032 127.2483 164° South  Level Estimated
02:46AM 35.8261 127.2753 164° South  Level Estimated
02:47AM 35.7490 127.3022 164° South  Level Estimated
02:48AM 35.6646 127.3315 164° South  Level Estimated
02:49AM 35.5803 127.3608 164° South  Level Estimated
02:50AM 35.4959 127.3901 164° South  Level Estimated
02:51AM 35.4115 127.4193 164° South  Level Estimated
02:52AM 35.3272 127.4484 164° South  Level Estimated
02:53AM 35.2428 127.4774 164° South  Level Estimated
02:54AM 35.1584 127.5064 164° South  Level Estimated
02:55AM 35.0740 127.5353 164° South  Level Estimated
02:56AM 34.9896 127.5642 164° South  Level Estimated
02:57AM 34.9052 127.5930 164° South  Level Estimated
02:58AM 34.8398 127.6153 164° South  Level Estimated
02:59AM 34.8398 127.6153 180° South  Level Estimated
03:00AM 34.8398 127.6153 180° South  Level Estimated
03:01AM 34.8398 127.6153 180° South  Level Estimated
03:02AM 34.8398 127.6153 180° South  Level Estimated
03:03AM 34.8398 127.6153 180° South  Level Estimated
03:04AM 34.8398 127.6153 180° South  Level Estimated
03:05AM 34.8398 127.6153 180° South  Level Estimated
03:06AM 34.8398 127.6153 180° South  Level Estimated
03:07AM 34.8398 127.6153 180° South  Level Estimated